< < Back
Terminal Aerodrome Forecast


Current Version              Previous Versions:   1  2  3  4  5  6  7  8  9  

Terminal Aerodrome Forecast

883
FTUS42 KFFC 242202 AAA
TAFMCN
TAF AMD
KMCN 242202Z 2422/2518 04004KT P6SM SCT060
     FM250100 00000KT P6SM FEW250
     FM251500 08005KT P6SM FEW040=

Latest METAR

532
SAUS80 KWBC 242200 RRB
MTRMCN
METAR KMCN 242153Z 00000KT 10SM CLR 34/17 A2999 RMK AO2 SLP150
T03390167


USA.gov is the U.S. government's official web portal to all federal, state and local government web resources and services.